Time;durP1;ratioP1;P1;durP2;ratioP2;P2;SDS_P1;SDS_P2;PMS_P1;PMS_P2;Temp;Humidity;BMP_temperature;BMP_pressure;BME280_temperature;BME280_humidity;BME280_pressure;Samples;Min_cycle;Max_cycle;Signal;HPM_P1;HPM_P2
2022/07/09 00:00:01;;;;;;;12.20;3.27;;;;;;;14.10;100.00;102034.91;5024061;28;20118;-76
2022/07/09 00:02:35;;;;;;;19.02;4.70;;;;;;;14.13;100.00;102037.28;5018897;28;20052;-76
2022/07/09 00:05:00;;;;;;;6.22;2.65;;;;;;;14.17;100.00;102035.97;5007740;28;20034;-76
2022/07/09 00:07:26;;;;;;;8.75;3.25;;;;;;;14.22;100.00;102040.91;5007301;28;20080;-75
2022/07/09 00:09:52;;;;;;;12.07;3.25;;;;;;;14.26;100.00;102043.13;5025188;28;20511;-76
2022/07/09 00:12:17;;;;;;;12.63;3.30;;;;;;;14.25;100.00;102035.19;5024094;28;20034;-76
2022/07/09 00:14:43;;;;;;;10.57;3.73;;;;;;;14.21;100.00;102037.38;5025411;28;20029;-75
2022/07/09 00:17:08;;;;;;;6.17;2.20;;;;;;;14.18;100.00;102026.91;5007505;28;20095;-75
2022/07/09 00:19:33;;;;;;;8.00;2.37;;;;;;;14.28;100.00;102033.06;5023553;28;20034;-76
2022/07/09 00:21:59;;;;;;;10.80;2.20;;;;;;;14.30;100.00;102030.19;5025537;28;20032;-76
2022/07/09 00:24:24;;;;;;;11.13;2.60;;;;;;;14.29;100.00;102025.84;5024085;28;20034;-76
2022/07/09 00:26:49;;;;;;;8.80;2.80;;;;;;;14.28;100.00;102027.69;5007571;28;20533;-76
2022/07/09 00:29:15;;;;;;;6.47;2.87;;;;;;;14.29;100.00;102018.63;5023660;28;20124;-76
2022/07/09 00:31:40;;;;;;;8.67;2.53;;;;;;;14.35;100.00;102018.00;5023899;28;20101;-76
2022/07/09 00:34:06;;;;;;;8.13;2.40;;;;;;;14.27;100.00;102000.97;5023951;28;20033;-76
2022/07/09 00:36:31;;;;;;;8.10;2.43;;;;;;;14.35;100.00;102006.38;5025146;28;20416;-76
2022/07/09 00:38:56;;;;;;;13.47;3.30;;;;;;;14.29;100.00;101991.75;5023546;28;20543;-76
2022/07/09 00:41:22;;;;;;;7.07;2.23;;;;;;;14.33;100.00;101993.13;5022004;28;20032;-76
2022/07/09 00:43:48;;;;;;;4.13;2.00;;;;;;;14.34;100.00;101989.44;5022286;28;20108;-76
2022/07/09 00:46:14;;;;;;;3.88;2.05;;;;;;;14.33;100.00;101974.34;5005635;28;20033;-75
2022/07/09 00:48:40;;;;;;;6.28;2.63;;;;;;;14.26;100.00;101959.84;5021800;28;20041;-76
2022/07/09 00:51:06;;;;;;;8.75;2.58;;;;;;;14.28;100.00;101979.34;5021725;28;20041;-76
2022/07/09 00:53:32;;;;;;;4.53;2.30;;;;;;;14.32;100.00;101990.59;5005910;28;20506;-76
2022/07/09 00:55:58;;;;;;;5.25;2.38;;;;;;;14.38;100.00;101983.78;5024400;28;20445;-76
2022/07/09 00:58:24;;;;;;;6.68;2.33;;;;;;;14.29;100.00;101974.81;5007215;28;20042;-75
2022/07/09 01:00:50;;;;;;;5.82;2.58;;;;;;;14.41;100.00;102000.41;5007188;28;20037;-76
2022/07/09 01:03:15;;;;;;;14.07;3.20;;;;;;;14.41;100.00;101997.72;5023454;28;20064;-76
2022/07/09 01:05:41;;;;;;;11.90;2.70;;;;;;;14.39;100.00;102007.78;5024804;28;20076;-76
2022/07/09 01:08:08;;;;;;;6.53;3.03;;;;;;;14.41;100.00;102010.31;5020455;28;20047;-76
2022/07/09 01:10:35;;;;;;;5.82;2.35;;;;;;;14.33;100.00;102011.94;5035297;28;20326;-75
2022/07/09 01:13:02;;;;;;;6.85;2.40;;;;;;;14.47;100.00;102023.09;5026859;28;20051;-76
2022/07/09 01:15:28;;;;;;;8.23;3.00;;;;;;;14.38;100.00;102006.09;5007088;28;20120;-76
2022/07/09 01:17:55;;;;;;;6.07;2.60;;;;;;;14.24;100.00;101996.75;5024406;28;20484;-76
2022/07/09 01:20:39;;;;;;;6.20;2.20;;;;;;;14.32;100.00;102002.19;5006675;28;20037;-76
2022/07/09 01:23:04;;;;;;;7.88;3.00;;;;;;;14.40;100.00;102008.59;5024862;28;20096;-76
2022/07/09 01:25:41;;;;;;;8.77;2.35;;;;;;;14.42;100.00;102020.91;5023422;28;20072;-75
2022/07/09 01:28:09;;;;;;;11.07;2.53;;;;;;;14.36;100.00;102014.31;5023814;28;20649;-76
2022/07/09 01:30:36;;;;;;;10.57;2.80;;;;;;;14.32;100.00;102007.56;5027298;28;20053;-75
2022/07/09 01:33:02;;;;;;;5.07;2.30;;;;;;;14.43;100.00;102008.31;5010706;28;20423;-76
2022/07/09 01:35:27;;;;;;;9.88;2.92;;;;;;;14.43;100.00;102008.31;5027197;28;20017;-75
2022/07/09 01:37:53;;;;;;;9.67;2.57;;;;;;;14.38;100.00;101999.88;5026853;28;20061;-76
2022/07/09 01:40:19;;;;;;;6.00;2.58;;;;;;;14.30;100.00;101998.81;5010050;28;20486;-76
2022/07/09 01:42:45;;;;;;;8.10;3.17;;;;;;;14.38;100.00;102005.25;5027090;28;20036;-75
2022/07/09 01:45:11;;;;;;;5.05;2.30;;;;;;;14.42;100.00;102001.25;5027135;28;20025;-76
2022/07/09 01:47:36;;;;;;;10.07;3.67;;;;;;;14.41;100.00;101996.88;5027019;28;20092;-76
2022/07/09 01:50:02;;;;;;;9.03;2.10;;;;;;;14.44;100.00;102000.06;5026672;28;20109;-76
2022/07/09 01:52:29;;;;;;;6.68;2.92;;;;;;;14.45;100.00;102004.47;5026767;28;20037;-75
2022/07/09 01:54:54;;;;;;;8.93;2.60;;;;;;;14.45;100.00;101993.72;5010330;28;20117;-75
2022/07/09 01:57:20;;;;;;;7.63;2.80;;;;;;;14.35;100.00;101990.28;5026991;28;20124;-76
2022/07/09 01:59:45;;;;;;;9.50;2.60;;;;;;;14.46;100.00;101987.34;5026685;28;20141;-76
2022/07/09 02:02:11;;;;;;;10.17;3.03;;;;;;;14.40;100.00;101997.88;5010065;28;20029;-75
2022/07/09 02:04:36;;;;;;;9.37;3.13;;;;;;;14.30;100.00;101988.06;5010373;28;20465;-76
2022/07/09 02:07:02;;;;;;;12.63;2.73;;;;;;;14.33;100.00;101998.50;5028155;28;20657;-76
2022/07/09 02:09:27;;;;;;;5.50;2.83;;;;;;;14.35;100.00;102003.72;5026521;28;20338;-76
2022/07/09 02:11:53;;;;;;;8.57;3.30;;;;;;;14.22;100.00;101987.19;5010063;28;20041;-76
2022/07/09 02:14:18;;;;;;;5.27;2.73;;;;;;;14.27;100.00;101991.06;5028209;28;20631;-76
2022/07/09 02:16:43;;;;;;;8.57;3.10;;;;;;;14.30;100.00;101993.44;5026560;28;20033;-76
2022/07/09 02:19:09;;;;;;;11.20;2.90;;;;;;;14.25;100.00;101986.84;5026513;28;20441;-76
2022/07/09 02:21:36;;;;;;;12.27;3.67;;;;;;;14.33;100.00;101984.25;5026425;28;20033;-75
2022/07/09 02:24:01;;;;;;;7.65;2.47;;;;;;;14.26;100.00;101975.97;5026681;28;20029;-76
2022/07/09 02:26:29;;;;;;;16.33;3.83;;;;;;;14.13;100.00;101980.88;5027669;28;20497;-75
2022/07/09 02:28:58;;;;;;;6.88;2.80;;;;;;;14.16;100.00;101975.19;5026340;28;20688;-75
2022/07/09 02:31:26;;;;;;;7.72;3.25;;;;;;;14.19;100.00;101977.59;5009796;28;20270;-75
2022/07/09 02:33:52;;;;;;;11.02;3.60;;;;;;;14.12;100.00;101977.38;5027575;28;20029;-76
2022/07/09 02:36:17;;;;;;;9.25;3.28;;;;;;;14.15;100.00;101979.72;5027264;28;20052;-75
2022/07/09 02:38:43;;;;;;;7.43;2.97;;;;;;;14.22;100.00;101989.88;5025471;28;20026;-75
2022/07/09 02:41:08;;;;;;;7.80;3.40;;;;;;;14.16;100.00;101969.81;5025739;28;20048;-76
2022/07/09 02:43:34;;;;;;;6.97;2.78;;;;;;;14.14;100.00;101972.69;5027094;28;20071;-75
2022/07/09 02:46:00;;;;;;;14.00;3.57;;;;;;;14.14;100.00;101977.19;5027102;28;20104;-76
2022/07/09 02:48:26;;;;;;;5.70;2.38;;;;;;;14.11;100.00;101974.81;5008888;28;20051;-76
2022/07/09 02:50:52;;;;;;;11.20;3.30;;;;;;;14.09;100.00;101969.63;5025322;28;20167;-76
2022/07/09 02:53:18;;;;;;;12.00;3.40;;;;;;;14.10;100.00;101978.53;5027108;28;20033;-76
2022/07/09 02:55:44;;;;;;;10.77;4.25;;;;;;;14.06;100.00;101980.66;5025440;28;20042;-76
2022/07/09 02:58:10;;;;;;;8.30;3.20;;;;;;;14.06;100.00;101975.28;5008543;28;20038;-76
2022/07/09 03:00:36;;;;;;;12.18;3.75;;;;;;;14.05;100.00;101967.41;5025199;28;20056;-75
2022/07/09 03:03:01;;;;;;;5.18;3.28;;;;;;;13.93;100.00;101964.97;5026668;28;20643;-76
2022/07/09 03:05:27;;;;;;;8.40;3.23;;;;;;;13.99;100.00;101968.03;5025288;28;20496;-76
2022/07/09 03:07:52;;;;;;;8.80;4.23;;;;;;;14.03;100.00;101956.81;5025231;28;20040;-76
2022/07/09 03:10:18;;;;;;;8.50;3.27;;;;;;;14.06;100.00;101961.03;5024891;28;20034;-76
2022/07/09 03:12:43;;;;;;;9.87;3.23;;;;;;;14.08;100.00;101961.72;5026332;28;20044;-76
2022/07/09 03:15:09;;;;;;;13.83;3.63;;;;;;;14.12;100.00;101953.19;5026111;28;20353;-76
2022/07/09 03:17:34;;;;;;;8.68;3.35;;;;;;;14.12;100.00;101952.34;5024962;28;20053;-76
2022/07/09 03:20:00;;;;;;;5.70;2.90;;;;;;;14.21;100.00;101962.16;5026078;28;20084;-76
2022/07/09 03:22:26;;;;;;;8.35;3.20;;;;;;;14.28;100.00;101957.84;5024727;28;20029;-76
2022/07/09 03:24:51;;;;;;;6.50;3.33;;;;;;;14.26;100.00;101943.72;5024874;28;20041;-76
2022/07/09 03:27:17;;;;;;;9.27;3.83;;;;;;;14.30;100.00;101947.75;5026188;28;20279;-75
2022/07/09 03:29:42;;;;;;;7.97;3.60;;;;;;;14.24;100.00;101934.97;5024549;28;20029;-75
2022/07/09 03:32:08;;;;;;;7.80;3.20;;;;;;;14.24;100.00;101945.72;5024733;28;20025;-75
2022/07/09 03:34:33;;;;;;;9.98;3.88;;;;;;;14.23;100.00;101935.97;5008534;28;20379;-75
2022/07/09 03:36:59;;;;;;;10.97;4.13;;;;;;;14.21;100.00;101942.50;5008429;28;20112;-76
2022/07/09 03:39:25;;;;;;;8.57;3.83;;;;;;;14.14;100.00;101929.72;5007737;28;20033;-75
2022/07/09 03:41:50;;;;;;;9.23;3.42;;;;;;;14.13;100.00;101928.00;5025902;28;20108;-76
2022/07/09 03:44:16;;;;;;;13.57;5.03;;;;;;;14.28;100.00;101936.34;5008056;28;20226;-76
2022/07/09 03:46:41;;;;;;;8.60;3.60;;;;;;;14.17;100.00;101931.25;5008296;28;20280;-76
2022/07/09 03:49:07;;;;;;;10.50;3.40;;;;;;;14.25;100.00;101930.44;5024281;28;20495;-75
2022/07/09 03:51:32;;;;;;;13.47;3.77;;;;;;;14.24;100.00;101926.94;5025104;28;20530;-75
2022/07/09 03:53:58;;;;;;;9.17;3.83;;;;;;;14.19;100.00;101925.69;5024514;28;20511;-76
2022/07/09 03:56:23;;;;;;;8.70;4.53;;;;;;;14.27;100.00;101934.66;5025633;28;20112;-76
2022/07/09 03:58:49;;;;;;;8.23;4.07;;;;;;;14.32;100.00;101943.09;5023923;28;20080;-76
2022/07/09 04:01:14;;;;;;;8.97;4.23;;;;;;;14.37;100.00;101934.53;5025376;28;20399;-76
2022/07/09 04:03:40;;;;;;;11.10;4.47;;;;;;;14.42;100.00;101942.13;5024470;28;20112;-76
2022/07/09 04:06:05;;;;;;;11.43;4.67;;;;;;;14.43;100.00;101931.22;5024094;28;20099;-75
2022/07/09 04:08:31;;;;;;;11.63;4.80;;;;;;;14.43;100.00;101941.16;5024171;28;20033;-75
2022/07/09 04:10:56;;;;;;;13.97;4.90;;;;;;;14.43;100.00;101939.28;5024425;28;20124;-75
2022/07/09 04:13:21;;;;;;;11.77;6.37;;;;;;;14.41;100.00;101935.09;5024805;28;20273;-75
2022/07/09 04:15:47;;;;;;;12.43;4.57;;;;;;;14.41;100.00;101930.56;5008077;28;20021;-75
2022/07/09 04:18:15;;;;;;;15.83;4.97;;;;;;;14.42;100.00;101936.75;5024635;28;20629;-75
2022/07/09 04:20:41;;;;;;;16.75;4.20;;;;;;;14.47;100.00;101940.66;5025721;28;20809;-76
2022/07/09 04:23:06;;;;;;;16.63;4.45;;;;;;;14.42;100.00;101942.13;5024734;28;20160;-76
2022/07/09 04:25:32;;;;;;;8.73;4.90;;;;;;;14.45;100.00;101937.31;5025867;28;20410;-75
2022/07/09 04:27:59;;;;;;;7.90;4.38;;;;;;;14.40;100.00;101945.00;5025776;28;20033;-76
2022/07/09 04:30:26;;;;;;;11.82;4.88;;;;;;;14.45;100.00;101941.84;5023109;28;20418;-76
2022/07/09 04:32:51;;;;;;;15.18;4.88;;;;;;;14.46;100.00;101935.44;5008343;28;20040;-76
2022/07/09 04:35:17;;;;;;;17.37;5.30;;;;;;;14.49;100.00;101933.31;5008473;28;20029;-75
2022/07/09 04:37:43;;;;;;;8.60;4.82;;;;;;;14.55;100.00;101937.22;5024148;28;20116;-77
2022/07/09 04:40:09;;;;;;;8.60;4.28;;;;;;;14.52;100.00;101910.63;5007239;28;20061;-76
2022/07/09 04:42:34;;;;;;;11.55;4.32;;;;;;;14.66;100.00;101915.44;5024011;28;20045;-76
2022/07/09 04:45:00;;;;;;;10.95;3.90;;;;;;;14.71;100.00;101920.34;5007699;28;20037;-76
2022/07/09 04:47:25;;;;;;;10.10;4.30;;;;;;;14.73;100.00;101921.84;5024086;28;20038;-76
2022/07/09 04:49:51;;;;;;;9.40;5.63;;;;;;;14.80;100.00;101922.06;5023688;28;20423;-76
2022/07/09 04:52:19;;;;;;;13.23;5.93;;;;;;;14.78;100.00;101916.81;5023901;28;20112;-76
2022/07/09 04:54:45;;;;;;;10.90;4.80;;;;;;;14.73;100.00;101912.94;5007441;28;20029;-76
2022/07/09 04:57:10;;;;;;;10.75;4.60;;;;;;;14.81;100.00;101925.56;5007339;28;20030;-76
2022/07/09 04:59:36;;;;;;;9.83;4.40;;;;;;;14.87;100.00;101919.56;5023464;28;20026;-75
2022/07/09 05:02:01;;;;;;;11.27;4.32;;;;;;;14.78;100.00;101919.50;5024012;28;20966;-76
2022/07/09 05:04:27;;;;;;;13.70;5.10;;;;;;;14.78;100.00;101919.50;5028243;28;20492;-75
2022/07/09 05:06:52;;;;;;;17.70;4.47;;;;;;;14.89;100.00;101922.91;5028730;28;20040;-75
2022/07/09 05:09:17;;;;;;;12.57;4.47;;;;;;;14.96;100.00;101918.56;5010764;28;20028;-76
2022/07/09 05:11:43;;;;;;;8.53;4.43;;;;;;;14.90;100.00;101916.53;5028600;28;20025;-75
2022/07/09 05:14:08;;;;;;;9.27;3.70;;;;;;;14.92;100.00;101906.47;5026884;28;20430;-76
2022/07/09 05:16:34;;;;;;;9.57;5.07;;;;;;;15.05;100.00;101922.97;5027888;28;20048;-75
2022/07/09 05:19:00;;;;;;;8.70;4.23;;;;;;;14.92;100.00;101920.75;5011272;28;20025;-76
2022/07/09 05:21:25;;;;;;;13.27;4.13;;;;;;;14.90;100.00;101925.44;5010947;28;20124;-75
2022/07/09 05:23:51;;;;;;;7.50;4.03;;;;;;;14.81;100.00;101930.94;5010966;28;20148;-74
2022/07/09 05:26:16;;;;;;;6.13;5.07;;;;;;;14.71;100.00;101931.91;5026719;28;20465;-73
2022/07/09 05:28:42;;;;;;;9.50;4.27;;;;;;;14.64;100.00;101925.50;5028116;28;20017;-72
2022/07/09 05:31:07;;;;;;;10.03;4.63;;;;;;;14.58;100.00;101923.44;5027687;28;20037;-73
2022/07/09 05:33:33;;;;;;;10.83;5.17;;;;;;;14.62;100.00;101938.25;5028373;28;20025;-73
2022/07/09 05:35:58;;;;;;;14.17;6.13;;;;;;;14.62;100.00;101924.81;5026440;28;20026;-73
2022/07/09 05:38:23;;;;;;;11.17;5.33;;;;;;;14.75;100.00;101941.34;5026497;28;20040;-74
2022/07/09 05:40:50;;;;;;;12.87;5.47;;;;;;;14.81;100.00;101925.56;5025365;28;20599;-73
2022/07/09 05:43:16;;;;;;;13.48;5.68;;;;;;;14.80;100.00;101918.50;5026952;28;20446;-74
2022/07/09 05:45:41;;;;;;;15.32;6.35;;;;;;;14.72;100.00;101917.47;5027117;28;20111;-74
2022/07/09 05:48:07;;;;;;;14.63;5.80;;;;;;;14.68;100.00;101912.56;5027700;28;20025;-72
2022/07/09 05:50:32;;;;;;;9.73;5.90;;;;;;;14.66;100.00;101902.00;5027991;28;20025;-73
2022/07/09 05:52:58;;;;;;;7.50;5.57;;;;;;;14.83;100.00;101908.28;5026844;28;20345;-74
2022/07/09 05:55:24;;;;;;;11.02;5.60;;;;;;;14.90;100.00;101889.66;5027699;28;20118;-74
2022/07/09 05:57:49;;;;;;;12.73;5.37;;;;;;;14.90;100.00;101886.97;5010143;28;20483;-73
2022/07/09 06:00:15;;;;;;;14.23;6.23;;;;;;;14.93;100.00;101892.00;5026088;28;20073;-72
2022/07/09 06:02:40;;;;;;;12.77;6.10;;;;;;;14.97;100.00;101891.50;5026665;28;20474;-73
2022/07/09 06:05:06;;;;;;;14.87;5.63;;;;;;;15.07;100.00;101893.22;5027641;28;20033;-73
2022/07/09 06:07:31;;;;;;;17.25;6.38;;;;;;;15.11;100.00;101889.22;5027829;28;20304;-73
2022/07/09 06:09:57;;;;;;;12.70;5.03;;;;;;;15.00;100.00;101903.78;5025541;28;20383;-72
2022/07/09 06:12:22;;;;;;;12.80;5.97;;;;;;;14.93;100.00;101886.63;5027436;28;20390;-73
2022/07/09 06:14:48;;;;;;;8.60;5.00;;;;;;;14.96;100.00;101887.16;5026753;28;20030;-74
2022/07/09 06:17:13;;;;;;;13.80;6.43;;;;;;;15.20;100.00;101882.84;5026042;28;20021;-73
2022/07/09 06:19:39;;;;;;;9.37;4.60;;;;;;;15.28;100.00;101877.47;5025684;28;20479;-73
2022/07/09 06:22:04;;;;;;;14.97;5.40;;;;;;;15.30;100.00;101880.00;5027056;28;20065;-73
2022/07/09 06:24:30;;;;;;;7.88;4.28;;;;;;;15.24;100.00;101881.50;5026524;28;20452;-73
2022/07/09 06:26:56;;;;;;;6.50;4.03;;;;;;;15.25;100.00;101879.66;5027963;28;20037;-74
2022/07/09 06:29:21;;;;;;;;;;;;;;;15.31;100.00;101881.66;5026495;28;20105;-73
2022/07/09 06:31:47;;;;;;;;;;;;;;;15.40;100.00;101888.75;5028378;28;19983;-75
2022/07/09 06:34:12;;;;;;;10.50;3.67;;;;;;;15.48;100.00;101886.06;5028092;28;19975;-75
2022/07/09 06:36:38;;;;;;;8.77;4.43;;;;;;;15.72;100.00;101884.44;5026435;28;20057;-74
2022/07/09 06:41:48;;;;;;;7.45;4.65;;;;;;;15.69;100.00;101890.97;5047219;28;20036;-74
2022/07/09 06:44:13;;;;;;;8.00;4.33;;;;;;;15.58;100.00;101889.44;5036642;28;20148;-76
2022/07/09 06:46:39;;;;;;;11.40;4.77;;;;;;;15.54;100.00;101885.38;5009923;28;20032;-73
2022/07/09 06:49:04;;;;;;;8.77;4.50;;;;;;;15.58;100.00;101875.97;5009638;28;20044;-74
2022/07/09 06:51:30;;;;;;;10.30;4.22;;;;;;;15.62;100.00;101877.34;5027518;28;20433;-73
2022/07/09 06:53:55;;;;;;;8.27;4.20;;;;;;;15.66;100.00;101874.28;5026537;28;20545;-74
2022/07/09 06:56:22;;;;;;;8.50;4.13;;;;;;;15.82;100.00;101879.69;5009806;28;20025;-73
2022/07/09 06:58:47;;;;;;;7.15;3.30;;;;;;;15.78;100.00;101872.97;5009456;28;20025;-74
2022/07/09 07:01:13;;;;;;;9.20;4.20;;;;;;;16.13;100.00;101876.28;5009570;28;20099;-75
2022/07/09 07:03:38;;;;;;;10.88;4.00;;;;;;;16.27;100.00;101877.44;5009871;28;20017;-75
2022/07/09 07:06:04;;;;;;;10.73;4.00;;;;;;;16.60;100.00;101875.47;5026876;28;20502;-74
2022/07/09 07:08:29;;;;;;;10.43;4.67;;;;;;;16.80;100.00;101865.97;5026222;28;20517;-73
2022/07/09 07:10:55;;;;;;;9.33;3.57;;;;;;;17.18;100.00;101870.66;5008244;28;20288;-74
2022/07/09 07:13:20;;;;;;;4.73;2.50;;;;;;;17.84;100.00;101862.91;5024016;28;20033;-75
2022/07/09 07:15:49;;;;;;;4.00;2.43;;;;;;;18.10;100.00;101847.09;5007630;28;20116;-74
2022/07/09 07:18:17;;;;;;;9.13;2.30;;;;;;;17.76;100.00;101804.38;5025284;28;20018;-75
2022/07/09 07:20:43;;;;;;;4.30;2.28;;;;;;;17.58;100.00;101799.28;5023777;28;20044;-76
2022/07/09 07:23:09;;;;;;;6.50;2.78;;;;;;;17.59;100.00;101800.16;5024221;28;20071;-75
2022/07/09 07:25:34;;;;;;;5.10;2.47;;;;;;;17.38;100.00;101790.88;5023579;28;20528;-76
2022/07/09 07:28:01;;;;;;;4.57;2.20;;;;;;;18.28;100.00;101824.25;5024329;28;20064;-75
2022/07/09 07:30:27;;;;;;;5.20;2.25;;;;;;;18.50;100.00;101820.63;5025047;28;20025;-75
2022/07/09 07:32:52;;;;;;;6.25;2.33;;;;;;;18.16;100.00;101813.09;5025432;28;20575;-73
2022/07/09 07:35:17;;;;;;;4.07;2.33;;;;;;;18.16;100.00;101837.41;5025841;28;20037;-75
2022/07/09 07:37:43;;;;;;;5.90;2.43;;;;;;;18.14;100.00;101829.50;5024327;28;20276;-75
2022/07/09 07:40:09;;;;;;;11.23;3.60;;;;;;;19.11;100.00;101838.41;5024897;28;20037;-76
2022/07/09 07:42:34;;;;;;;7.95;2.30;;;;;;;19.32;100.00;101808.63;5026160;28;20040;-75
2022/07/09 07:45:00;;;;;;;4.20;1.97;;;;;;;19.87;100.00;101789.88;5025992;28;20317;-73
2022/07/09 07:47:25;;;;;;;5.33;2.23;;;;;;;19.97;100.00;101762.44;5025637;28;20112;-75
2022/07/09 07:49:51;;;;;;;7.83;2.20;;;;;;;18.79;100.00;101716.09;5007892;28;20164;-75
2022/07/09 07:52:17;;;;;;;4.55;2.75;;;;;;;18.76;100.00;101767.88;5026170;28;20022;-74
2022/07/09 07:54:42;;;;;;;3.40;1.53;;;;;;;19.69;100.00;101755.19;5026020;28;20045;-74
2022/07/09 07:57:07;;;;;;;5.50;1.83;;;;;;;19.84;100.00;101686.50;5026168;28;20084;-75
2022/07/09 07:59:33;;;;;;;4.77;1.57;;;;;;;19.88;100.00;101622.72;5025674;28;20498;-75
2022/07/09 08:01:58;;;;;;;5.97;1.60;;;;;;;20.60;100.00;101537.13;5025851;28;20032;-75
2022/07/09 08:04:23;;;;;;;5.53;1.97;;;;;;;19.82;100.00;101467.22;5008072;28;20502;-75
2022/07/09 08:06:49;;;;;;;4.00;1.50;;;;;;;20.41;100.00;101511.66;5024601;28;20028;-75
2022/07/09 08:09:14;;;;;;;2.70;1.53;;;;;;;20.11;100.00;101349.47;5023453;28;20483;-75
2022/07/09 08:11:40;;;;;;;4.60;1.63;;;;;;;20.85;100.00;101535.44;5024268;28;20037;-75
2022/07/09 08:14:06;;;;;;;5.05;1.45;;;;;;;20.53;100.00;101493.72;5024407;28;20039;-75
2022/07/09 08:16:32;;;;;;;3.08;1.20;;;;;;;20.55;100.00;101485.38;5025029;28;20030;-75
2022/07/09 08:18:57;;;;;;;3.50;1.40;;;;;;;21.14;100.00;101328.81;5025340;28;20084;-75
2022/07/09 08:21:23;;;;;;;3.87;1.87;;;;;;;21.18;100.00;101433.25;5024245;28;21696;-75
2022/07/09 08:23:51;;;;;;;3.58;2.05;;;;;;;20.87;100.00;101451.94;5025697;28;20407;-75
2022/07/09 08:26:19;;;;;;;5.07;1.80;;;;;;;21.19;100.00;101521.78;5024118;28;20030;-75
2022/07/09 08:28:44;;;;;;;3.30;1.95;;;;;;;21.35;100.00;101449.84;5025399;28;20491;-75
2022/07/09 08:31:10;;;;;;;4.82;1.27;;;;;;;21.77;100.00;101529.91;5024400;28;20029;-76
2022/07/09 08:33:35;;;;;;;4.60;1.40;;;;;;;21.20;100.00;101398.56;5025503;28;20030;-76
2022/07/09 08:36:01;;;;;;;1.67;1.20;;;;;;;21.66;100.00;101436.34;5025282;28;20025;-75
2022/07/09 08:38:27;;;;;;;8.57;1.60;;;;;;;20.99;100.00;101231.41;5023877;28;20500;-75
2022/07/09 08:40:53;;;;;;;1.63;1.05;;;;;;;21.29;100.00;101272.34;5024542;28;20033;-75
2022/07/09 08:43:18;;;;;;;2.22;1.33;;;;;;;22.24;100.00;101457.06;5025054;28;20544;-75
2022/07/09 08:45:45;;;;;;;5.20;1.27;;;;;;;22.57;100.00;101346.19;5025185;28;20079;-76
2022/07/09 08:48:10;;;;;;;1.75;1.08;;;;;;;21.18;100.00;101118.28;5024278;28;20037;-76
2022/07/09 08:50:37;;;;;;;5.33;1.83;;;;;;;21.41;100.00;101340.38;5023884;28;20048;-75
2022/07/09 08:53:03;;;;;;;2.35;0.90;;;;;;;22.00;100.00;101303.69;5025759;28;20033;-76
2022/07/09 08:55:28;;;;;;;;;;;;;;;22.62;100.00;101306.38;5024495;28;20024;-76
2022/07/09 08:57:54;;;;;;;2.70;0.90;;;;;;;23.37;100.00;101375.97;5024754;28;20000;-75
2022/07/09 09:00:19;;;;;;;2.67;1.13;;;;;;;22.91;100.00;101099.72;5023830;28;20029;-76
2022/07/09 09:02:44;;;;;;;1.93;0.80;;;;;;;23.04;100.00;101045.06;5025190;28;20482;-76
2022/07/09 09:05:15;;;;;;;5.90;1.20;;;;;;;22.82;100.00;101099.22;5021922;28;20404;-77
2022/07/09 09:07:41;;;;;;;4.55;1.15;;;;;;;23.22;100.00;101231.19;5024713;28;20033;-76
2022/07/09 09:10:07;;;;;;;4.78;1.02;;;;;;;22.32;100.00;101065.06;5022991;28;20111;-75
2022/07/09 09:12:33;;;;;;;3.72;1.10;;;;;;;21.45;100.00;100999.38;5024747;28;20410;-76
2022/07/09 09:14:58;;;;;;;3.20;0.95;;;;;;;21.18;100.00;101216.03;5023451;28;20056;-76
2022/07/09 09:17:24;;;;;;;7.10;1.33;;;;;;;20.62;100.00;101153.38;5022995;28;20076;-75
2022/07/09 09:19:49;;;;;;;3.73;1.53;;;;;;;20.30;100.00;101181.50;5022919;28;20026;-76
2022/07/09 09:22:16;;;;;;;3.50;1.25;;;;;;;19.59;100.00;101215.69;5023211;28;20163;-76
2022/07/09 09:24:42;;;;;;;11.95;1.50;;;;;;;19.06;100.00;101392.44;5023001;28;20530;-76
2022/07/09 09:27:07;;;;;;;4.40;1.15;;;;;;;20.87;100.00;101548.81;5024249;28;20071;-75
2022/07/09 09:29:36;;;;;;;3.97;1.45;;;;;;;21.98;100.00;101356.63;5024418;28;20033;-76
2022/07/09 09:32:11;;;;;;;3.25;0.85;;;;;;;22.08;100.00;101063.34;5023862;28;20045;-76
2022/07/09 09:34:37;;;;;;;5.70;1.02;;;;;;;22.37;100.00;101001.00;5016714;28;20491;-76
2022/07/09 09:37:02;;;;;;;1.88;1.10;;;;;;;22.84;92.31;100898.41;5024376;28;20061;-76
2022/07/09 09:39:29;;;;;;;5.28;0.80;;;;;;;21.27;100.00;100859.81;5006284;28;20116;-76
2022/07/09 09:41:55;;;;;;;2.28;1.15;;;;;;;20.43;100.00;101076.50;5024198;28;20467;-75
2022/07/09 09:44:23;;;;;;;;;;;;;;;19.89;100.00;101253.19;5023402;28;20037;-76
2022/07/09 09:46:49;;;;;;;2.05;1.08;;;;;;;19.44;100.00;101296.31;5024317;28;19913;-76
2022/07/09 09:49:15;;;;;;;3.17;1.20;;;;;;;20.43;100.00;101488.72;5023075;28;20033;-76
2022/07/09 09:51:59;;;;;;;9.05;1.50;;;;;;;22.01;100.00;101541.03;5027780;28;20029;-75
2022/07/09 09:54:24;;;;;;;2.85;1.30;;;;;;;22.11;100.00;101114.53;5027796;28;20091;-76
2022/07/09 09:56:49;;;;;;;4.43;1.00;;;;;;;22.00;100.00;101082.69;5010505;28;20029;-75
2022/07/09 09:59:16;;;;;;;4.90;1.63;;;;;;;22.99;100.00;101186.50;5027088;28;20041;-76
2022/07/09 10:01:43;;;;;;;2.42;1.15;;;;;;;23.38;96.90;101137.88;5027693;28;20554;-76
2022/07/09 10:04:11;;;;;;;2.83;1.00;;;;;;;23.79;86.97;100988.84;5025312;28;20108;-75
2022/07/09 10:06:37;;;;;;;2.00;1.00;;;;;;;24.20;94.22;101205.06;5025708;28;20010;-76
2022/07/09 10:09:04;;;;;;;1.83;1.73;;;;;;;23.30;80.37;100749.53;5009250;28;20045;-76
2022/07/09 10:11:44;;;;;;;2.53;0.90;;;;;;;22.52;82.72;100740.19;5018845;28;20017;-75
2022/07/09 10:14:24;;;;;;;1.77;0.90;;;;;;;23.36;81.68;100890.19;5025066;28;20026;-75
2022/07/09 10:16:54;;;;;;;0.93;0.82;;;;;;;23.62;75.83;100814.34;5026239;28;20059;-76
2022/07/09 10:19:30;;;;;;;2.50;0.60;;;;;;;23.28;70.50;100603.78;5024818;28;20068;-75
2022/07/09 10:21:57;;;;;;;5.13;0.77;;;;;;;23.18;72.30;100667.94;5024887;28;20413;-76
2022/07/09 10:24:26;;;;;;;1.15;0.55;;;;;;;24.38;72.78;100923.84;5026218;28;20049;-75
2022/07/09 10:26:52;;;;;;;4.07;1.02;;;;;;;24.00;76.80;100949.97;5025558;28;20037;-75
2022/07/09 10:29:22;;;;;;;6.43;1.35;;;;;;;23.35;72.03;100686.16;5026069;28;20033;-75
2022/07/09 10:31:48;;;;;;;1.17;0.65;;;;;;;23.56;73.68;100810.72;5026359;28;20033;-76
2022/07/09 10:34:42;;;;;;;3.50;0.70;;;;;;;23.10;65.13;100434.16;5027830;28;20071;-76
2022/07/09 10:37:08;;;;;;;2.15;0.50;;;;;;;22.00;68.49;100405.84;5024120;28;20418;-76
2022/07/09 10:39:33;;;;;;;1.67;0.70;;;;;;;22.54;73.61;100719.81;5026292;28;20021;-75
2022/07/09 10:42:00;;;;;;;6.17;1.10;;;;;;;22.82;70.81;100668.38;5026756;28;20040;-76
2022/07/09 10:44:36;;;;;;;1.67;1.10;;;;;;;23.46;70.09;100807.00;5026501;28;20278;-76
2022/07/09 10:47:03;;;;;;;1.77;0.70;;;;;;;24.08;67.77;100841.53;5025987;28;20095;-77
2022/07/09 10:49:29;;;;;;;0.73;0.60;;;;;;;24.37;71.45;100997.75;5026183;28;20022;-76
2022/07/09 10:51:57;;;;;;;1.05;0.90;;;;;;;24.48;61.17;100611.28;5026071;28;20394;-76
2022/07/09 10:54:22;;;;;;;4.63;0.80;;;;;;;24.13;61.24;100566.97;5008914;28;20120;-76
2022/07/09 10:56:48;;;;;;;2.28;0.90;;;;;;;22.15;73.70;100601.84;5027383;28;20120;-76
2022/07/09 10:59:20;;;;;;;2.47;0.70;;;;;;;22.36;71.42;100591.38;5025884;28;20033;-76
2022/07/09 11:01:45;;;;;;;2.85;0.70;;;;;;;23.01;76.64;100901.22;5025847;28;20041;-76
2022/07/09 11:04:12;;;;;;;3.78;0.90;;;;;;;22.72;76.63;100854.88;5025967;28;20021;-75
2022/07/09 11:06:45;;;;;;;2.40;0.82;;;;;;;23.59;76.31;101013.78;5025861;28;20033;-76
2022/07/09 11:09:14;;;;;;;2.45;0.80;;;;;;;24.47;68.77;100950.72;5027165;28;20576;-76
2022/07/09 11:11:44;;;;;;;2.80;0.50;;;;;;;23.89;63.50;100658.34;5026856;28;20033;-76
2022/07/09 11:14:10;;;;;;;1.70;0.93;;;;;;;23.34;63.39;100534.69;5025466;28;20724;-75